• Join FlightAware (Why Join?)
  • Login
  • US Flag 
06:45AM EST


 

Airport Tracker/Info


-or-


 

Live Flight TrackerFlight Track Log ✈ N9114D ✈ 03-Jun-2014 ✈ KPIE - KPIE

Flight Track Log - Related Links

Times and Time Zones

All times are in EDT time to prevent confusion due to time zone crossing. See the N9114D flight status page for this flight to view local times or setup timezone preferences in your user account.

Time Position Orientation Groundspeed Altitude Reporting Facility
EDT Latitude Longitude Course Direction KTS MPH feet Rate Location/Type
07:32AM 27.9167 -82.6833 360° North 59 68 300  Level Tampa TRACON
07:33AM 27.9333 -82.6833 360° North 102 117 900 660 Climbing Tampa TRACON
07:34AM 27.9167 -82.7167 241° Southwest 110 127 1,500 720 Climbing Tampa TRACON
07:35AM 27.9167 -82.7500 270° West 102 117 2,400 660 Climbing Tampa TRACON
07:36AM 27.9167 -82.7833 270° West 96 110 2,900 240 Climbing Tampa TRACON
07:37AM 27.9000 -82.8167 241° Southwest 108 124 2,900  Level Tampa TRACON
07:38AM 27.9167 -82.8333 319° Northwest 100 115 3,000 60 Climbing Tampa TRACON
07:39AM 27.9000 -82.8667 241° Southwest 99 114 3,100  Climbing Tampa TRACON
07:40AM 27.9000 -82.9000 270° West 107 123 3,100 -60 Level Tampa TRACON
07:41AM 27.9167 -82.8667 60° Northeast 104 120 3,000 -60 Descending Tampa TRACON
07:42AM 27.9167 -82.8333 90° East 102 117 3,000 -60 Level Tampa TRACON
07:43AM 27.9000 -82.8333 180° South 108 124 2,900  Descending Tampa TRACON
07:44AM 27.9000 -82.8667 270° West 106 122 3,000  Climbing Tampa TRACON
07:45AM 27.9167 -82.8500 41° Northeast 105 121 2,900 -60 Descending Tampa TRACON
07:46AM 27.9167 -82.8333 90° East 103 119 2,900  Level Tampa TRACON
07:47AM 27.8833 -82.8500 204° Southwest 107 123 2,900  Level Tampa TRACON
07:48AM 27.9000 -82.8667 319° Northwest 106 122 3,000  Climbing Tampa TRACON
07:49AM 27.9000 -82.8500 90° East 99 114 3,000  Level Tampa TRACON
07:50AM 27.9000 -82.8167 90° East 101 116 3,000  Level Tampa TRACON
07:51AM 27.8833 -82.8500 241° Southwest 109 125 3,000  Level Tampa TRACON
07:52AM 27.9000 -82.8833 300° West 99 114 3,100  Climbing Tampa TRACON
07:53AM 27.9167 -82.8500 60° Northeast 102 117 3,000 -60 Descending Tampa TRACON
07:54AM 27.9000 -82.8333 139° Southeast 99 114 3,000  Level Tampa TRACON
07:55AM 27.8833 -82.8500 221° Southwest 107 123 3,000  Level Tampa TRACON
07:56AM 27.9000 -82.8833 300° West 105 121 3,100  Climbing Tampa TRACON
07:57AM 27.9167 -82.8667 41° Northeast 98 113 3,000 -120 Descending Tampa TRACON
07:58AM 27.9167 -82.8333 90° East 95 109 2,900  Descending Tampa TRACON
07:59AM 27.9000 -82.8333 180° South 100 115 3,000  Climbing Tampa TRACON
08:00AM 27.8833 -82.8667 241° Southwest 100 115 3,000  Level Tampa TRACON
08:01AM 27.9000 -82.8667 360° North 96 110 3,000  Level Tampa TRACON
08:02AM 27.9000 -82.8500 90° East 91 105 3,100  Climbing Tampa TRACON
08:03AM 27.8833 -82.8333 139° Southeast 99 114 3,000  Descending Tampa TRACON
08:04AM 27.8667 -82.8167 139° Southeast 96 110 3,100 -120 Climbing Tampa TRACON
08:05AM 27.8333 -82.8167 180° South 96 110 2,800 -420 Descending Tampa TRACON
08:06AM 27.8167 -82.8000 139° Southeast 91 105 2,300 -420 Descending Tampa TRACON
08:07AM 27.8000 -82.7833 139° Southeast 80 92 2,000 -120 Descending Tampa TRACON
08:08AM 27.7667 -82.7833 180° South 85 98 2,100  Climbing Tampa TRACON
08:09AM 27.7500 -82.7667 138° Southeast 87 100 2,000 -60 Descending Tampa TRACON
08:10AM 27.7500 -82.7333 90° East 84 97 2,000  Level Tampa TRACON
08:11AM 27.7500 -82.7167 90° East 81 93 2,000  Level Tampa TRACON
08:12AM 27.7333 -82.6833 119° Southeast 80 92 2,000  Level Tampa TRACON
08:13AM 27.7500 -82.6667 42° Northeast 95 109 2,000  Level Tampa TRACON
08:14AM 27.7667 -82.6667 360° North 103 119 2,000  Level Tampa TRACON
08:15AM 27.8000 -82.6667 360° North 95 109 2,000 -240 Level Tampa TRACON
08:16AM 27.8167 -82.6833 319° Northwest 96 110 1,600 -540 Descending Tampa TRACON
08:17AM 27.8500 -82.6833 360° North 98 113 900 -540 Descending Tampa TRACON
08:18AM 27.8833 -82.6833 360° North 87 100 500 -240 Descending Tampa TRACON
08:19AM 27.9000 -82.6833 360° North 79 91 500 300 Level Tampa TRACON
08:20AM 27.9167 -82.7167 300° West 114 131 1,100 660 Climbing Tampa TRACON
08:21AM 27.9167 -82.7500 270° West 117 135 1,800 420 Climbing Tampa TRACON
08:22AM 27.9167 -82.7833 270° West 118 136 2,000 120 Climbing Tampa TRACON
08:23AM 27.9000 -82.8167 241° Southwest 112 129 2,100  Climbing Tampa TRACON
08:24AM 27.8833 -82.8167 180° South 91 105 2,100 -60 Level Tampa TRACON
08:25AM 27.8500 -82.8167 180° South 94 108 2,000  Descending Tampa TRACON
08:26AM 27.8333 -82.8000 139° Southeast 87 100 2,100  Climbing Tampa TRACON
08:27AM 27.8167 -82.7833 139° Southeast 86 99 2,100 -60 Level Tampa TRACON
08:28AM 27.8000 -82.7500 119° Southeast 87 100 2,000 -60 Descending Tampa TRACON
08:29AM 27.7667 -82.7500 180° South 100 115 2,000  Level Tampa TRACON
08:30AM 27.7500 -82.7500 180° South 103 119 2,100  Climbing Tampa TRACON
08:31AM 27.7500 -82.7833 270° West 114 131 2,100  Level Tampa TRACON
08:32AM 27.7833 -82.7833 360° North 101 116 2,100 -240 Level Tampa TRACON
08:33AM 27.8000 -82.7667 41° Northeast 101 116 1,600 -540 Descending Tampa TRACON
08:34AM 27.8333 -82.7667 360° North 92 106 1,100 -300 Descending Tampa TRACON
08:35AM 27.8333 -82.7333 90° East 74 85 1,100 -60 Level Tampa TRACON
08:36AM 27.8500 -82.7167 41° Northeast 78 90 1,000 -300 Descending Tampa TRACON
08:37AM 27.8667 -82.7167 360° North 92 106 600 -360 Descending Tampa TRACON
08:38AM 27.8833 -82.7000 41° Northeast 83 96 400 -240 Descending Tampa TRACON